sensor_id;sensor_type;location;lat;lon;timestamp;P1;durP1;ratioP1;P2;durP2;ratioP2
17574;SDS011;8906;43.590;1.418;2023-04-30T00:02:10;2.30;;;2.10;;
17574;SDS011;8906;43.590;1.418;2023-04-30T00:04:37;7.43;;;2.67;;
17574;SDS011;8906;43.590;1.418;2023-04-30T00:07:03;2.40;;;2.20;;
17574;SDS011;8906;43.590;1.418;2023-04-30T00:09:32;3.38;;;2.20;;
17574;SDS011;8906;43.590;1.418;2023-04-30T00:11:59;2.53;;;2.33;;
17574;SDS011;8906;43.590;1.418;2023-04-30T00:14:26;1.85;;;1.73;;
17574;SDS011;8906;43.590;1.418;2023-04-30T00:16:52;2.67;;;1.83;;
17574;SDS011;8906;43.590;1.418;2023-04-30T00:19:19;2.08;;;1.98;;
17574;SDS011;8906;43.590;1.418;2023-04-30T00:21:46;1.50;;;1.40;;
17574;SDS011;8906;43.590;1.418;2023-04-30T00:24:13;2.58;;;2.38;;
17574;SDS011;8906;43.590;1.418;2023-04-30T00:26:41;1.98;;;1.88;;
17574;SDS011;8906;43.590;1.418;2023-04-30T00:29:08;1.83;;;1.73;;
17574;SDS011;8906;43.590;1.418;2023-04-30T00:31:36;2.13;;;2.03;;
17574;SDS011;8906;43.590;1.418;2023-04-30T00:34:03;2.08;;;1.98;;
17574;SDS011;8906;43.590;1.418;2023-04-30T00:36:30;2.25;;;2.15;;
17574;SDS011;8906;43.590;1.418;2023-04-30T00:38:57;2.33;;;2.13;;
17574;SDS011;8906;43.590;1.418;2023-04-30T00:41:24;2.42;;;2.22;;
17574;SDS011;8906;43.590;1.418;2023-04-30T00:43:52;3.10;;;2.90;;
17574;SDS011;8906;43.590;1.418;2023-04-30T00:46:19;3.00;;;2.80;;
17574;SDS011;8906;43.590;1.418;2023-04-30T00:48:46;3.25;;;2.83;;
17574;SDS011;8906;43.590;1.418;2023-04-30T00:51:14;3.22;;;2.92;;
17574;SDS011;8906;43.590;1.418;2023-04-30T00:53:41;4.03;;;3.47;;
17574;SDS011;8906;43.590;1.418;2023-04-30T00:56:09;4.10;;;3.80;;
17574;SDS011;8906;43.590;1.418;2023-04-30T00:58:36;4.22;;;3.88;;
17574;SDS011;8906;43.590;1.418;2023-04-30T01:01:04;4.78;;;4.38;;
17574;SDS011;8906;43.590;1.418;2023-04-30T01:03:32;6.32;;;4.72;;
17574;SDS011;8906;43.590;1.418;2023-04-30T01:06:00;4.93;;;4.43;;
17574;SDS011;8906;43.590;1.418;2023-04-30T01:08:27;5.72;;;5.18;;
17574;SDS011;8906;43.590;1.418;2023-04-30T01:10:58;7.05;;;5.50;;
17574;SDS011;8906;43.590;1.418;2023-04-30T01:13:33;6.15;;;5.65;;
17574;SDS011;8906;43.590;1.418;2023-04-30T01:16:09;6.40;;;5.90;;
17574;SDS011;8906;43.590;1.418;2023-04-30T01:18:42;5.93;;;5.43;;
17574;SDS011;8906;43.590;1.418;2023-04-30T01:21:17;8.30;;;5.75;;
17574;SDS011;8906;43.590;1.418;2023-04-30T01:23:53;5.85;;;5.45;;
17574;SDS011;8906;43.590;1.418;2023-04-30T01:26:44;6.20;;;5.70;;
17574;SDS011;8906;43.590;1.418;2023-04-30T01:29:19;5.90;;;5.32;;
17574;SDS011;8906;43.590;1.418;2023-04-30T01:31:49;4.93;;;4.47;;
17574;SDS011;8906;43.590;1.418;2023-04-30T01:34:16;6.60;;;6.00;;
17574;SDS011;8906;43.590;1.418;2023-04-30T01:36:49;5.28;;;4.78;;
17574;SDS011;8906;43.590;1.418;2023-04-30T01:39:38;5.85;;;4.85;;
17574;SDS011;8906;43.590;1.418;2023-04-30T01:42:20;5.40;;;4.90;;
17574;SDS011;8906;43.590;1.418;2023-04-30T01:44:57;4.18;;;3.85;;
17574;SDS011;8906;43.590;1.418;2023-04-30T01:47:33;4.10;;;3.78;;
17574;SDS011;8906;43.590;1.418;2023-04-30T01:50:08;4.13;;;3.83;;
17574;SDS011;8906;43.590;1.418;2023-04-30T01:52:46;5.00;;;4.20;;
17574;SDS011;8906;43.590;1.418;2023-04-30T01:55:17;5.13;;;3.63;;
17574;SDS011;8906;43.590;1.418;2023-04-30T01:57:49;3.63;;;3.17;;
17574;SDS011;8906;43.590;1.418;2023-04-30T02:00:23;3.30;;;3.00;;
17574;SDS011;8906;43.590;1.418;2023-04-30T02:02:50;4.57;;;4.20;;
17574;SDS011;8906;43.590;1.418;2023-04-30T02:05:17;4.43;;;3.45;;
17574;SDS011;8906;43.590;1.418;2023-04-30T02:07:45;4.10;;;3.22;;
17574;SDS011;8906;43.590;1.418;2023-04-30T02:10:15;4.82;;;4.03;;
17574;SDS011;8906;43.590;1.418;2023-04-30T02:12:43;3.13;;;2.83;;
17574;SDS011;8906;43.590;1.418;2023-04-30T02:15:10;3.15;;;2.92;;
17574;SDS011;8906;43.590;1.418;2023-04-30T02:17:38;4.07;;;2.63;;
17574;SDS011;8906;43.590;1.418;2023-04-30T02:20:06;2.55;;;2.35;;
17574;SDS011;8906;43.590;1.418;2023-04-30T02:22:34;3.25;;;3.00;;
17574;SDS011;8906;43.590;1.418;2023-04-30T02:25:01;3.15;;;2.85;;
17574;SDS011;8906;43.590;1.418;2023-04-30T02:27:29;3.28;;;3.08;;
17574;SDS011;8906;43.590;1.418;2023-04-30T02:29:57;3.08;;;2.88;;
17574;SDS011;8906;43.590;1.418;2023-04-30T02:32:24;4.13;;;2.75;;
17574;SDS011;8906;43.590;1.418;2023-04-30T02:34:53;3.30;;;3.08;;
17574;SDS011;8906;43.590;1.418;2023-04-30T02:37:20;4.15;;;3.00;;
17574;SDS011;8906;43.590;1.418;2023-04-30T02:39:47;3.83;;;3.53;;
17574;SDS011;8906;43.590;1.418;2023-04-30T02:42:14;3.97;;;3.50;;
17574;SDS011;8906;43.590;1.418;2023-04-30T02:44:41;5.95;;;3.83;;
17574;SDS011;8906;43.590;1.418;2023-04-30T02:47:08;4.40;;;4.05;;
17574;SDS011;8906;43.590;1.418;2023-04-30T02:49:35;4.35;;;3.30;;
17574;SDS011;8906;43.590;1.418;2023-04-30T02:52:03;4.53;;;3.65;;
17574;SDS011;8906;43.590;1.418;2023-04-30T02:54:31;4.35;;;3.95;;
17574;SDS011;8906;43.590;1.418;2023-04-30T02:56:58;3.22;;;3.03;;
17574;SDS011;8906;43.590;1.418;2023-04-30T02:59:25;3.83;;;3.53;;
17574;SDS011;8906;43.590;1.418;2023-04-30T03:01:52;4.28;;;3.88;;
17574;SDS011;8906;43.590;1.418;2023-04-30T03:04:19;3.92;;;3.60;;
17574;SDS011;8906;43.590;1.418;2023-04-30T03:06:46;5.95;;;4.65;;
17574;SDS011;8906;43.590;1.418;2023-04-30T03:09:14;4.75;;;3.42;;
17574;SDS011;8906;43.590;1.418;2023-04-30T03:11:42;5.40;;;4.90;;
17574;SDS011;8906;43.590;1.418;2023-04-30T03:14:08;3.90;;;3.60;;
17574;SDS011;8906;43.590;1.418;2023-04-30T03:16:35;3.47;;;3.20;;
17574;SDS011;8906;43.590;1.418;2023-04-30T03:19:02;5.07;;;3.95;;
17574;SDS011;8906;43.590;1.418;2023-04-30T03:21:29;4.40;;;4.00;;
17574;SDS011;8906;43.590;1.418;2023-04-30T03:23:56;4.15;;;3.75;;
17574;SDS011;8906;43.590;1.418;2023-04-30T03:26:25;4.75;;;4.25;;
17574;SDS011;8906;43.590;1.418;2023-04-30T03:28:51;4.22;;;3.88;;
17574;SDS011;8906;43.590;1.418;2023-04-30T03:31:19;4.35;;;3.90;;
17574;SDS011;8906;43.590;1.418;2023-04-30T03:33:46;4.07;;;3.78;;
17574;SDS011;8906;43.590;1.418;2023-04-30T03:36:13;4.15;;;3.78;;
17574;SDS011;8906;43.590;1.418;2023-04-30T03:38:40;4.65;;;3.88;;
17574;SDS011;8906;43.590;1.418;2023-04-30T03:41:07;3.95;;;3.60;;
17574;SDS011;8906;43.590;1.418;2023-04-30T03:43:36;4.22;;;3.90;;
17574;SDS011;8906;43.590;1.418;2023-04-30T03:46:03;4.18;;;3.42;;
17574;SDS011;8906;43.590;1.418;2023-04-30T03:48:30;4.85;;;4.40;;
17574;SDS011;8906;43.590;1.418;2023-04-30T03:50:57;4.30;;;4.00;;
17574;SDS011;8906;43.590;1.418;2023-04-30T03:53:24;4.47;;;4.07;;
17574;SDS011;8906;43.590;1.418;2023-04-30T03:55:51;4.15;;;3.85;;
17574;SDS011;8906;43.590;1.418;2023-04-30T03:58:19;4.57;;;4.18;;
17574;SDS011;8906;43.590;1.418;2023-04-30T04:00:48;3.88;;;3.47;;
17574;SDS011;8906;43.590;1.418;2023-04-30T04:03:15;4.70;;;4.30;;
17574;SDS011;8906;43.590;1.418;2023-04-30T04:05:42;5.70;;;4.65;;
17574;SDS011;8906;43.590;1.418;2023-04-30T04:08:10;4.05;;;3.65;;
17574;SDS011;8906;43.590;1.418;2023-04-30T04:10:37;4.10;;;3.70;;
17574;SDS011;8906;43.590;1.418;2023-04-30T04:13:05;4.75;;;4.35;;
17574;SDS011;8906;43.590;1.418;2023-04-30T04:15:32;3.90;;;3.60;;
17574;SDS011;8906;43.590;1.418;2023-04-30T04:18:00;5.55;;;5.10;;
17574;SDS011;8906;43.590;1.418;2023-04-30T04:20:27;4.30;;;4.00;;
17574;SDS011;8906;43.590;1.418;2023-04-30T04:22:54;4.47;;;4.07;;
17574;SDS011;8906;43.590;1.418;2023-04-30T04:25:21;4.72;;;4.32;;
17574;SDS011;8906;43.590;1.418;2023-04-30T04:27:49;5.43;;;4.93;;
17574;SDS011;8906;43.590;1.418;2023-04-30T04:30:17;4.90;;;4.50;;
17574;SDS011;8906;43.590;1.418;2023-04-30T04:32:44;6.00;;;5.50;;
17574;SDS011;8906;43.590;1.418;2023-04-30T04:35:19;5.10;;;4.70;;
17574;SDS011;8906;43.590;1.418;2023-04-30T04:37:46;4.85;;;4.20;;
17574;SDS011;8906;43.590;1.418;2023-04-30T04:40:13;5.38;;;4.68;;
17574;SDS011;8906;43.590;1.418;2023-04-30T04:42:40;6.13;;;4.80;;
17574;SDS011;8906;43.590;1.418;2023-04-30T04:45:07;4.82;;;4.35;;
17574;SDS011;8906;43.590;1.418;2023-04-30T04:47:35;4.85;;;4.45;;
17574;SDS011;8906;43.590;1.418;2023-04-30T04:50:02;5.15;;;4.75;;
17574;SDS011;8906;43.590;1.418;2023-04-30T04:52:31;5.88;;;5.28;;
17574;SDS011;8906;43.590;1.418;2023-04-30T04:54:57;5.20;;;4.80;;
17574;SDS011;8906;43.590;1.418;2023-04-30T04:57:24;6.00;;;5.50;;
17574;SDS011;8906;43.590;1.418;2023-04-30T04:59:51;5.78;;;5.28;;
17574;SDS011;8906;43.590;1.418;2023-04-30T05:02:18;5.30;;;4.90;;
17574;SDS011;8906;43.590;1.418;2023-04-30T05:04:47;6.03;;;5.53;;
17574;SDS011;8906;43.590;1.418;2023-04-30T05:07:15;6.53;;;5.97;;
17574;SDS011;8906;43.590;1.418;2023-04-30T05:09:44;9.10;;;4.95;;
17574;SDS011;8906;43.590;1.418;2023-04-30T05:12:11;5.85;;;5.35;;
17574;SDS011;8906;43.590;1.418;2023-04-30T05:14:38;5.15;;;4.70;;
17574;SDS011;8906;43.590;1.418;2023-04-30T05:17:06;6.80;;;5.97;;
17574;SDS011;8906;43.590;1.418;2023-04-30T05:19:33;5.78;;;5.25;;
17574;SDS011;8906;43.590;1.418;2023-04-30T05:22:00;6.38;;;5.78;;
17574;SDS011;8906;43.590;1.418;2023-04-30T05:24:28;6.93;;;5.68;;
17574;SDS011;8906;43.590;1.418;2023-04-30T05:26:56;6.13;;;5.53;;
17574;SDS011;8906;43.590;1.418;2023-04-30T05:29:23;5.72;;;5.22;;
17574;SDS011;8906;43.590;1.418;2023-04-30T05:31:50;5.55;;;5.07;;
17574;SDS011;8906;43.590;1.418;2023-04-30T05:34:17;6.78;;;6.18;;
17574;SDS011;8906;43.590;1.418;2023-04-30T05:36:44;6.20;;;5.70;;
17574;SDS011;8906;43.590;1.418;2023-04-30T05:39:11;4.95;;;4.53;;
17574;SDS011;8906;43.590;1.418;2023-04-30T05:41:38;5.60;;;5.10;;
17574;SDS011;8906;43.590;1.418;2023-04-30T05:44:06;6.10;;;5.60;;
17574;SDS011;8906;43.590;1.418;2023-04-30T05:46:33;6.13;;;5.53;;
17574;SDS011;8906;43.590;1.418;2023-04-30T05:49:00;6.53;;;5.90;;
17574;SDS011;8906;43.590;1.418;2023-04-30T05:51:27;7.20;;;6.50;;
17574;SDS011;8906;43.590;1.418;2023-04-30T05:53:55;8.18;;;6.60;;
17574;SDS011;8906;43.590;1.418;2023-04-30T05:56:22;6.70;;;6.00;;
17574;SDS011;8906;43.590;1.418;2023-04-30T05:58:50;6.63;;;6.03;;
17574;SDS011;8906;43.590;1.418;2023-04-30T06:01:19;7.68;;;6.75;;
17574;SDS011;8906;43.590;1.418;2023-04-30T06:03:46;8.63;;;7.70;;
17574;SDS011;8906;43.590;1.418;2023-04-30T06:06:13;7.07;;;6.43;;
17574;SDS011;8906;43.590;1.418;2023-04-30T06:08:40;6.80;;;5.97;;
17574;SDS011;8906;43.590;1.418;2023-04-30T06:11:09;6.85;;;6.13;;
17574;SDS011;8906;43.590;1.418;2023-04-30T06:13:37;6.57;;;5.97;;
17574;SDS011;8906;43.590;1.418;2023-04-30T06:16:05;9.68;;;7.88;;
17574;SDS011;8906;43.590;1.418;2023-04-30T06:18:34;9.48;;;7.38;;
17574;SDS011;8906;43.590;1.418;2023-04-30T06:21:01;8.57;;;7.68;;
17574;SDS011;8906;43.590;1.418;2023-04-30T06:23:28;7.97;;;7.18;;
17574;SDS011;8906;43.590;1.418;2023-04-30T06:25:55;9.23;;;7.38;;
17574;SDS011;8906;43.590;1.418;2023-04-30T06:28:22;7.80;;;7.00;;
17574;SDS011;8906;43.590;1.418;2023-04-30T06:30:49;8.77;;;7.93;;
17574;SDS011;8906;43.590;1.418;2023-04-30T06:33:18;8.80;;;7.82;;
17574;SDS011;8906;43.590;1.418;2023-04-30T06:35:46;8.40;;;7.40;;
17574;SDS011;8906;43.590;1.418;2023-04-30T06:38:15;10.32;;;8.63;;
17574;SDS011;8906;43.590;1.418;2023-04-30T06:40:42;10.95;;;7.85;;
17574;SDS011;8906;43.590;1.418;2023-04-30T06:43:09;9.00;;;8.10;;
17574;SDS011;8906;43.590;1.418;2023-04-30T06:45:36;9.27;;;8.30;;
17574;SDS011;8906;43.590;1.418;2023-04-30T06:48:03;8.48;;;7.40;;
17574;SDS011;8906;43.590;1.418;2023-04-30T06:50:30;8.98;;;7.93;;
17574;SDS011;8906;43.590;1.418;2023-04-30T06:52:58;10.00;;;9.00;;
17574;SDS011;8906;43.590;1.418;2023-04-30T06:55:25;9.15;;;8.35;;
17574;SDS011;8906;43.590;1.418;2023-04-30T06:57:52;7.90;;;7.13;;
17574;SDS011;8906;43.590;1.418;2023-04-30T07:00:20;11.43;;;8.00;;
17574;SDS011;8906;43.590;1.418;2023-04-30T07:02:47;9.95;;;7.10;;
17574;SDS011;8906;43.590;1.418;2023-04-30T07:05:16;11.73;;;8.10;;
17574;SDS011;8906;43.590;1.418;2023-04-30T07:07:43;10.00;;;8.68;;
17574;SDS011;8906;43.590;1.418;2023-04-30T07:10:13;8.80;;;7.65;;
17574;SDS011;8906;43.590;1.418;2023-04-30T07:12:44;8.88;;;7.95;;
17574;SDS011;8906;43.590;1.418;2023-04-30T07:15:10;8.88;;;7.97;;
17574;SDS011;8906;43.590;1.418;2023-04-30T07:17:37;12.60;;;7.82;;
17574;SDS011;8906;43.590;1.418;2023-04-30T07:20:06;9.40;;;7.78;;
17574;SDS011;8906;43.590;1.418;2023-04-30T07:22:34;7.95;;;6.95;;
17574;SDS011;8906;43.590;1.418;2023-04-30T07:25:01;9.07;;;8.00;;
17574;SDS011;8906;43.590;1.418;2023-04-30T07:27:29;9.27;;;7.38;;
17574;SDS011;8906;43.590;1.418;2023-04-30T07:29:56;7.07;;;6.38;;
17574;SDS011;8906;43.590;1.418;2023-04-30T07:32:23;7.80;;;6.43;;
17574;SDS011;8906;43.590;1.418;2023-04-30T07:34:51;13.60;;;7.70;;
17574;SDS011;8906;43.590;1.418;2023-04-30T07:37:18;8.48;;;6.95;;
17574;SDS011;8906;43.590;1.418;2023-04-30T07:39:45;8.32;;;6.80;;
17574;SDS011;8906;43.590;1.418;2023-04-30T07:42:13;8.45;;;7.22;;
17574;SDS011;8906;43.590;1.418;2023-04-30T07:44:41;5.88;;;5.32;;
17574;SDS011;8906;43.590;1.418;2023-04-30T07:47:08;5.95;;;4.90;;
17574;SDS011;8906;43.590;1.418;2023-04-30T07:49:35;5.80;;;5.20;;
17574;SDS011;8906;43.590;1.418;2023-04-30T07:52:01;4.90;;;4.45;;
17574;SDS011;8906;43.590;1.418;2023-04-30T07:54:30;7.13;;;5.35;;
17574;SDS011;8906;43.590;1.418;2023-04-30T07:57:00;6.18;;;5.10;;
17574;SDS011;8906;43.590;1.418;2023-04-30T07:59:27;5.43;;;4.00;;
17574;SDS011;8906;43.590;1.418;2023-04-30T08:01:56;4.72;;;4.22;;
17574;SDS011;8906;43.590;1.418;2023-04-30T08:04:23;4.78;;;4.38;;
17574;SDS011;8906;43.590;1.418;2023-04-30T08:06:50;3.10;;;2.88;;
17574;SDS011;8906;43.590;1.418;2023-04-30T08:09:16;3.25;;;2.92;;
17574;SDS011;8906;43.590;1.418;2023-04-30T08:11:43;3.60;;;3.30;;
17574;SDS011;8906;43.590;1.418;2023-04-30T08:14:10;3.97;;;2.90;;
17574;SDS011;8906;43.590;1.418;2023-04-30T08:16:37;3.47;;;3.17;;
17574;SDS011;8906;43.590;1.418;2023-04-30T08:19:05;4.47;;;4.07;;
17574;SDS011;8906;43.590;1.418;2023-04-30T08:21:32;4.40;;;4.07;;
17574;SDS011;8906;43.590;1.418;2023-04-30T08:23:59;6.07;;;4.03;;
17574;SDS011;8906;43.590;1.418;2023-04-30T08:26:26;5.88;;;5.38;;
17574;SDS011;8906;43.590;1.418;2023-04-30T08:28:53;7.00;;;5.65;;
17574;SDS011;8906;43.590;1.418;2023-04-30T08:31:20;5.88;;;5.35;;
17574;SDS011;8906;43.590;1.418;2023-04-30T08:33:47;7.10;;;5.93;;
17574;SDS011;8906;43.590;1.418;2023-04-30T08:36:15;5.55;;;5.05;;
17574;SDS011;8906;43.590;1.418;2023-04-30T08:38:42;6.22;;;5.63;;
17574;SDS011;8906;43.590;1.418;2023-04-30T08:41:10;9.43;;;6.07;;
17574;SDS011;8906;43.590;1.418;2023-04-30T08:43:38;8.75;;;6.38;;
17574;SDS011;8906;43.590;1.418;2023-04-30T08:46:06;10.85;;;6.28;;
17574;SDS011;8906;43.590;1.418;2023-04-30T08:48:33;6.63;;;5.35;;
17574;SDS011;8906;43.590;1.418;2023-04-30T08:51:00;6.95;;;5.07;;
17574;SDS011;8906;43.590;1.418;2023-04-30T08:53:29;7.55;;;6.80;;
17574;SDS011;8906;43.590;1.418;2023-04-30T08:55:59;7.57;;;6.32;;
17574;SDS011;8906;43.590;1.418;2023-04-30T08:58:26;7.53;;;6.65;;
17574;SDS011;8906;43.590;1.418;2023-04-30T09:00:53;9.18;;;6.90;;
17574;SDS011;8906;43.590;1.418;2023-04-30T09:03:22;7.25;;;6.50;;
17574;SDS011;8906;43.590;1.418;2023-04-30T09:05:50;8.98;;;6.97;;
17574;SDS011;8906;43.590;1.418;2023-04-30T09:08:17;6.18;;;5.68;;
17574;SDS011;8906;43.590;1.418;2023-04-30T09:10:46;6.60;;;5.57;;
17574;SDS011;8906;43.590;1.418;2023-04-30T09:13:13;6.95;;;5.78;;
17574;SDS011;8906;43.590;1.418;2023-04-30T09:15:41;11.10;;;6.93;;
17574;SDS011;8906;43.590;1.418;2023-04-30T09:18:10;6.05;;;5.45;;
17574;SDS011;8906;43.590;1.418;2023-04-30T09:20:52;12.68;;;6.55;;
17574;SDS011;8906;43.590;1.418;2023-04-30T09:23:21;6.50;;;5.90;;
17574;SDS011;8906;43.590;1.418;2023-04-30T09:25:49;8.02;;;6.18;;
17574;SDS011;8906;43.590;1.418;2023-04-30T09:28:16;8.65;;;6.53;;
17574;SDS011;8906;43.590;1.418;2023-04-30T09:30:47;8.13;;;7.07;;
17574;SDS011;8906;43.590;1.418;2023-04-30T09:33:15;8.93;;;6.43;;
17574;SDS011;8906;43.590;1.418;2023-04-30T09:35:43;8.07;;;7.00;;
17574;SDS011;8906;43.590;1.418;2023-04-30T09:38:24;10.63;;;7.82;;
17574;SDS011;8906;43.590;1.418;2023-04-30T09:40:53;9.13;;;7.47;;
17574;SDS011;8906;43.590;1.418;2023-04-30T09:43:21;12.32;;;9.05;;
17574;SDS011;8906;43.590;1.418;2023-04-30T09:45:48;7.40;;;6.63;;
17574;SDS011;8906;43.590;1.418;2023-04-30T09:48:15;10.32;;;7.70;;
17574;SDS011;8906;43.590;1.418;2023-04-30T09:50:47;10.07;;;7.75;;
17574;SDS011;8906;43.590;1.418;2023-04-30T09:53:14;7.80;;;6.88;;
17574;SDS011;8906;43.590;1.418;2023-04-30T09:55:43;8.27;;;7.47;;
17574;SDS011;8906;43.590;1.418;2023-04-30T09:58:12;11.13;;;8.32;;
17574;SDS011;8906;43.590;1.418;2023-04-30T10:00:41;9.27;;;7.70;;
17574;SDS011;8906;43.590;1.418;2023-04-30T10:03:10;8.68;;;7.88;;
17574;SDS011;8906;43.590;1.418;2023-04-30T10:05:40;6.50;;;5.75;;
17574;SDS011;8906;43.590;1.418;2023-04-30T10:08:12;10.93;;;7.88;;
17574;SDS011;8906;43.590;1.418;2023-04-30T10:10:44;10.27;;;6.80;;
17574;SDS011;8906;43.590;1.418;2023-04-30T10:13:17;10.13;;;8.02;;
17574;SDS011;8906;43.590;1.418;2023-04-30T10:15:47;9.50;;;7.18;;
17574;SDS011;8906;43.590;1.418;2023-04-30T10:18:18;7.72;;;6.93;;
17574;SDS011;8906;43.590;1.418;2023-04-30T10:20:48;10.38;;;6.93;;
17574;SDS011;8906;43.590;1.418;2023-04-30T10:23:18;7.82;;;6.95;;
17574;SDS011;8906;43.590;1.418;2023-04-30T10:25:46;7.95;;;7.18;;
17574;SDS011;8906;43.590;1.418;2023-04-30T10:28:13;9.15;;;8.13;;
17574;SDS011;8906;43.590;1.418;2023-04-30T10:30:42;10.73;;;9.07;;
17574;SDS011;8906;43.590;1.418;2023-04-30T10:33:12;10.48;;;8.55;;
17574;SDS011;8906;43.590;1.418;2023-04-30T10:35:46;11.90;;;8.32;;
17574;SDS011;8906;43.590;1.418;2023-04-30T10:38:20;9.05;;;7.60;;
17574;SDS011;8906;43.590;1.418;2023-04-30T10:40:49;7.72;;;7.00;;
17574;SDS011;8906;43.590;1.418;2023-04-30T10:43:16;13.23;;;9.52;;
17574;SDS011;8906;43.590;1.418;2023-04-30T10:45:47;12.73;;;9.07;;
17574;SDS011;8906;43.590;1.418;2023-04-30T10:48:15;12.30;;;9.80;;
17574;SDS011;8906;43.590;1.418;2023-04-30T10:50:49;9.98;;;8.85;;
17574;SDS011;8906;43.590;1.418;2023-04-30T10:53:17;9.73;;;8.73;;
17574;SDS011;8906;43.590;1.418;2023-04-30T10:55:47;10.27;;;9.05;;
17574;SDS011;8906;43.590;1.418;2023-04-30T10:58:22;12.27;;;10.95;;
17574;SDS011;8906;43.590;1.418;2023-04-30T11:01:00;11.68;;;9.07;;
17574;SDS011;8906;43.590;1.418;2023-04-30T11:03:28;9.80;;;8.75;;
17574;SDS011;8906;43.590;1.418;2023-04-30T11:05:57;9.38;;;8.52;;
17574;SDS011;8906;43.590;1.418;2023-04-30T11:08:31;9.32;;;8.38;;
17574;SDS011;8906;43.590;1.418;2023-04-30T11:10:59;11.10;;;9.88;;
17574;SDS011;8906;43.590;1.418;2023-04-30T11:13:27;12.98;;;9.35;;
17574;SDS011;8906;43.590;1.418;2023-04-30T11:15:57;10.52;;;8.23;;
17574;SDS011;8906;43.590;1.418;2023-04-30T11:18:29;10.02;;;8.45;;
17574;SDS011;8906;43.590;1.418;2023-04-30T11:20:56;10.30;;;9.23;;
17574;SDS011;8906;43.590;1.418;2023-04-30T11:23:24;8.85;;;8.05;;
17574;SDS011;8906;43.590;1.418;2023-04-30T11:25:53;11.48;;;8.85;;
17574;SDS011;8906;43.590;1.418;2023-04-30T11:28:22;9.00;;;8.10;;
17574;SDS011;8906;43.590;1.418;2023-04-30T11:30:50;11.45;;;8.00;;
17574;SDS011;8906;43.590;1.418;2023-04-30T11:33:19;12.27;;;8.93;;
17574;SDS011;8906;43.590;1.418;2023-04-30T11:35:47;11.50;;;9.98;;
17574;SDS011;8906;43.590;1.418;2023-04-30T11:38:16;12.15;;;9.55;;
17574;SDS011;8906;43.590;1.418;2023-04-30T11:40:45;8.73;;;7.82;;
17574;SDS011;8906;43.590;1.418;2023-04-30T11:43:20;13.57;;;7.95;;
17574;SDS011;8906;43.590;1.418;2023-04-30T11:45:58;8.82;;;7.22;;
17574;SDS011;8906;43.590;1.418;2023-04-30T11:48:31;11.20;;;6.70;;
17574;SDS011;8906;43.590;1.418;2023-04-30T11:51:01;8.60;;;7.40;;
17574;SDS011;8906;43.590;1.418;2023-04-30T11:53:29;8.85;;;7.10;;
17574;SDS011;8906;43.590;1.418;2023-04-30T11:56:00;8.25;;;7.40;;
17574;SDS011;8906;43.590;1.418;2023-04-30T11:58:32;9.68;;;7.22;;
17574;SDS011;8906;43.590;1.418;2023-04-30T12:00:59;9.07;;;7.50;;
17574;SDS011;8906;43.590;1.418;2023-04-30T12:03:27;6.47;;;5.85;;
17574;SDS011;8906;43.590;1.418;2023-04-30T12:05:56;10.02;;;6.55;;
17574;SDS011;8906;43.590;1.418;2023-04-30T12:08:23;7.90;;;7.05;;
17574;SDS011;8906;43.590;1.418;2023-04-30T12:10:50;6.60;;;5.07;;
17574;SDS011;8906;43.590;1.418;2023-04-30T12:13:17;9.98;;;6.10;;
17574;SDS011;8906;43.590;1.418;2023-04-30T12:15:55;6.68;;;5.97;;
17574;SDS011;8906;43.590;1.418;2023-04-30T12:18:23;10.70;;;5.40;;
17574;SDS011;8906;43.590;1.418;2023-04-30T12:20:50;6.00;;;5.40;;
17574;SDS011;8906;43.590;1.418;2023-04-30T12:23:19;7.68;;;5.18;;
17574;SDS011;8906;43.590;1.418;2023-04-30T12:25:46;6.13;;;5.50;;
17574;SDS011;8906;43.590;1.418;2023-04-30T12:28:13;5.18;;;4.60;;
17574;SDS011;8906;43.590;1.418;2023-04-30T12:30:40;8.10;;;5.28;;
17574;SDS011;8906;43.590;1.418;2023-04-30T12:33:09;5.75;;;4.93;;
17574;SDS011;8906;43.590;1.418;2023-04-30T12:35:36;11.68;;;4.68;;
17574;SDS011;8906;43.590;1.418;2023-04-30T12:38:08;7.45;;;5.00;;
17574;SDS011;8906;43.590;1.418;2023-04-30T12:40:36;5.57;;;3.83;;
17574;SDS011;8906;43.590;1.418;2023-04-30T12:43:05;4.97;;;4.47;;
17574;SDS011;8906;43.590;1.418;2023-04-30T12:45:42;6.60;;;6.10;;
17574;SDS011;8906;43.590;1.418;2023-04-30T12:48:11;11.32;;;6.50;;
17574;SDS011;8906;43.590;1.418;2023-04-30T12:50:38;6.15;;;5.30;;
17574;SDS011;8906;43.590;1.418;2023-04-30T12:53:06;7.18;;;5.47;;
17574;SDS011;8906;43.590;1.418;2023-04-30T12:55:33;5.47;;;4.97;;
17574;SDS011;8906;43.590;1.418;2023-04-30T12:58:03;4.95;;;4.43;;
17574;SDS011;8906;43.590;1.418;2023-04-30T13:00:44;5.53;;;5.03;;
17574;SDS011;8906;43.590;1.418;2023-04-30T13:03:12;8.85;;;4.78;;
17574;SDS011;8906;43.590;1.418;2023-04-30T13:05:39;4.43;;;4.03;;
17574;SDS011;8906;43.590;1.418;2023-04-30T13:08:07;4.88;;;4.35;;
17574;SDS011;8906;43.590;1.418;2023-04-30T13:10:34;6.00;;;3.80;;
17574;SDS011;8906;43.590;1.418;2023-04-30T13:13:00;5.97;;;4.72;;
17574;SDS011;8906;43.590;1.418;2023-04-30T13:15:29;4.30;;;3.78;;
17574;SDS011;8906;43.590;1.418;2023-04-30T13:17:56;4.20;;;3.75;;
17574;SDS011;8906;43.590;1.418;2023-04-30T13:20:23;5.35;;;3.65;;
17574;SDS011;8906;43.590;1.418;2023-04-30T13:22:50;5.15;;;2.92;;
17574;SDS011;8906;43.590;1.418;2023-04-30T13:25:17;4.13;;;3.80;;
17574;SDS011;8906;43.590;1.418;2023-04-30T13:27:45;7.00;;;3.58;;
17574;SDS011;8906;43.590;1.418;2023-04-30T13:30:11;3.65;;;2.40;;
17574;SDS011;8906;43.590;1.418;2023-04-30T13:32:40;4.22;;;3.00;;
17574;SDS011;8906;43.590;1.418;2023-04-30T13:35:08;6.03;;;2.85;;
17574;SDS011;8906;43.590;1.418;2023-04-30T13:37:35;4.45;;;3.30;;
17574;SDS011;8906;43.590;1.418;2023-04-30T13:40:03;5.15;;;3.15;;
17574;SDS011;8906;43.590;1.418;2023-04-30T13:42:30;6.05;;;2.78;;
17574;SDS011;8906;43.590;1.418;2023-04-30T13:44:57;3.20;;;2.90;;
17574;SDS011;8906;43.590;1.418;2023-04-30T13:47:24;3.45;;;2.75;;
17574;SDS011;8906;43.590;1.418;2023-04-30T13:49:52;3.28;;;2.97;;
17574;SDS011;8906;43.590;1.418;2023-04-30T13:52:19;2.78;;;2.58;;
17574;SDS011;8906;43.590;1.418;2023-04-30T13:54:46;3.15;;;2.72;;
17574;SDS011;8906;43.590;1.418;2023-04-30T13:57:13;2.65;;;2.40;;
17574;SDS011;8906;43.590;1.418;2023-04-30T13:59:40;6.95;;;3.05;;
17574;SDS011;8906;43.590;1.418;2023-04-30T14:02:07;3.60;;;3.22;;
17574;SDS011;8906;43.590;1.418;2023-04-30T14:04:34;3.13;;;2.92;;
17574;SDS011;8906;43.590;1.418;2023-04-30T14:07:02;3.35;;;3.05;;
17574;SDS011;8906;43.590;1.418;2023-04-30T14:09:29;2.83;;;2.58;;
17574;SDS011;8906;43.590;1.418;2023-04-30T14:11:56;6.22;;;2.72;;
17574;SDS011;8906;43.590;1.418;2023-04-30T14:14:23;3.63;;;3.03;;
17574;SDS011;8906;43.590;1.418;2023-04-30T14:16:51;4.53;;;3.00;;
17574;SDS011;8906;43.590;1.418;2023-04-30T14:19:18;5.85;;;4.13;;
17574;SDS011;8906;43.590;1.418;2023-04-30T14:21:45;3.42;;;3.00;;
17574;SDS011;8906;43.590;1.418;2023-04-30T14:24:13;2.90;;;2.70;;
17574;SDS011;8906;43.590;1.418;2023-04-30T14:26:40;3.58;;;3.28;;
17574;SDS011;8906;43.590;1.418;2023-04-30T14:29:07;4.78;;;2.90;;
17574;SDS011;8906;43.590;1.418;2023-04-30T14:31:34;3.05;;;2.75;;
17574;SDS011;8906;43.590;1.418;2023-04-30T14:34:01;3.80;;;3.50;;
17574;SDS011;8906;43.590;1.418;2023-04-30T14:36:28;3.60;;;2.80;;
17574;SDS011;8906;43.590;1.418;2023-04-30T14:38:55;5.00;;;2.85;;
17574;SDS011;8906;43.590;1.418;2023-04-30T14:41:24;3.13;;;2.70;;
17574;SDS011;8906;43.590;1.418;2023-04-30T14:43:51;4.25;;;3.05;;
17574;SDS011;8906;43.590;1.418;2023-04-30T14:46:18;4.30;;;2.85;;
17574;SDS011;8906;43.590;1.418;2023-04-30T14:48:45;4.22;;;2.83;;
17574;SDS011;8906;43.590;1.418;2023-04-30T14:51:12;2.72;;;2.53;;
17574;SDS011;8906;43.590;1.418;2023-04-30T14:53:38;4.25;;;2.88;;
17574;SDS011;8906;43.590;1.418;2023-04-30T14:56:05;3.70;;;2.97;;
17574;SDS011;8906;43.590;1.418;2023-04-30T14:58:34;3.03;;;2.65;;
17574;SDS011;8906;43.590;1.418;2023-04-30T15:01:01;3.47;;;3.10;;
17574;SDS011;8906;43.590;1.418;2023-04-30T15:03:28;2.80;;;2.60;;
17574;SDS011;8906;43.590;1.418;2023-04-30T15:05:55;4.22;;;2.33;;
17574;SDS011;8906;43.590;1.418;2023-04-30T15:08:22;2.25;;;2.10;;